EZY39CH EGCC-EGNS
Flight info
| Callsign | EZY39CH |
|---|---|
| Flight time | 0h 38m |
| Altitude | 18000 |
| Route | EKLAD1R EKLAD Y53 WAL M146 LUSOD DCT IOM DCT |
| Aircraft | A319/M-SDE2E3FGIJ1RWXYZ/LB1 |
Departure
| Time | 2026-04-26 13:39 |
|---|---|
| Airport | Manchester Airport (EGCC) |
Arrival
| Time | 2026-04-26 14:18 |
|---|---|
| Airport | Isle of Man Airport (EGNS) |
| Time | Latitude | Longitude | Altitude | Speed | Heading |
|---|---|---|---|---|---|
| 2026-04-26 12:57 | 53.36794 | -2.28689 | 218 ft | 0 kts | 315° |
| 2026-04-26 12:58 | 53.36808 | -2.28691 | 255 ft | 0 kts | 315° |
| 2026-04-26 13:09 | 53.36790 | -2.28683 | 255 ft | 0 kts | 315° |
| 2026-04-26 13:25 | 53.36780 | -2.28664 | 255 ft | 4 kts | 287° |
| 2026-04-26 13:25 | 53.36769 | -2.28626 | 255 ft | 4 kts | 313° |
| 2026-04-26 13:25 | 53.36757 | -2.28589 | 255 ft | 4 kts | 266° |
| 2026-04-26 13:26 | 53.36765 | -2.28552 | 255 ft | 2 kts | 225° |
| 2026-04-26 13:26 | 53.36766 | -2.28551 | 255 ft | 0 kts | 225° |
| 2026-04-26 13:30 | 53.36752 | -2.28574 | 255 ft | 4 kts | 225° |
| 2026-04-26 13:30 | 53.36728 | -2.28613 | 255 ft | 6 kts | 225° |
| 2026-04-26 13:30 | 53.36687 | -2.28682 | 255 ft | 10 kts | 225° |
| 2026-04-26 13:31 | 53.36636 | -2.28766 | 255 ft | 11 kts | 221° |
| 2026-04-26 13:31 | 53.36573 | -2.28733 | 255 ft | 11 kts | 118° |
| 2026-04-26 13:31 | 53.36526 | -2.28625 | 255 ft | 12 kts | 134° |
| 2026-04-26 13:31 | 53.36464 | -2.28520 | 255 ft | 13 kts | 135° |
| 2026-04-26 13:32 | 53.36397 | -2.28410 | 255 ft | 14 kts | 135° |
| 2026-04-26 13:32 | 53.36328 | -2.28290 | 255 ft | 15 kts | 134° |
| 2026-04-26 13:32 | 53.36253 | -2.28162 | 255 ft | 16 kts | 135° |
| 2026-04-26 13:32 | 53.36184 | -2.28049 | 255 ft | 0 kts | 136° |
| 2026-04-26 13:33 | 53.36184 | -2.28050 | 255 ft | 0 kts | 136° |
| 2026-04-26 13:33 | 53.36184 | -2.28049 | 255 ft | 0 kts | 136° |
| 2026-04-26 13:33 | 53.36143 | -2.28037 | 255 ft | 18 kts | 191° |
| 2026-04-26 13:34 | 53.36014 | -2.27937 | 255 ft | 23 kts | 133° |
| 2026-04-26 13:34 | 53.35889 | -2.27847 | 255 ft | 19 kts | 179° |
| 2026-04-26 13:34 | 53.35800 | -2.27715 | 255 ft | 18 kts | 133° |
| 2026-04-26 13:34 | 53.35731 | -2.27644 | 255 ft | 17 kts | 158° |
| 2026-04-26 13:35 | 53.35619 | -2.27478 | 256 ft | 17 kts | 85° |
| 2026-04-26 13:35 | 53.35690 | -2.27309 | 255 ft | 18 kts | 51° |
| 2026-04-26 13:35 | 53.35769 | -2.27146 | 255 ft | 18 kts | 51° |
| 2026-04-26 13:35 | 53.35840 | -2.26968 | 255 ft | 18 kts | 58° |
| 2026-04-26 13:36 | 53.35917 | -2.26794 | 255 ft | 19 kts | 57° |
| 2026-04-26 13:36 | 53.35996 | -2.26617 | 255 ft | 19 kts | 52° |
| 2026-04-26 13:36 | 53.36082 | -2.26443 | 255 ft | 20 kts | 50° |
| 2026-04-26 13:36 | 53.36141 | -2.26286 | 255 ft | 12 kts | 97° |
| 2026-04-26 13:37 | 53.36087 | -2.26185 | 256 ft | 12 kts | 144° |
| 2026-04-26 13:37 | 53.36017 | -2.26156 | 256 ft | 9 kts | 226° |
| 2026-04-26 13:37 | 53.35993 | -2.26214 | 258 ft | 0 kts | 232° |
| 2026-04-26 13:38 | 53.35881 | -2.26449 | 264 ft | 65 kts | 231° |
| 2026-04-26 13:38 | 53.35439 | -2.27367 | 255 ft | 135 kts | 231° |
| 2026-04-26 13:39 | 53.34795 | -2.28685 | 790 ft | 145 kts | 229° |
| 2026-04-26 13:39 | 53.34162 | -2.30023 | 1578 ft | 149 kts | 229° |
| 2026-04-26 13:39 | 53.33514 | -2.31449 | 2161 ft | 164 kts | 230° |
| 2026-04-26 13:39 | 53.32789 | -2.33013 | 2708 ft | 181 kts | 231° |
| 2026-04-26 13:40 | 53.32234 | -2.34992 | 3207 ft | 205 kts | 262° |
| 2026-04-26 13:40 | 53.32284 | -2.37559 | 3685 ft | 234 kts | 272° |
| 2026-04-26 13:40 | 53.32381 | -2.40392 | 4421 ft | 252 kts | 272° |
| 2026-04-26 13:40 | 53.32443 | -2.43357 | 5410 ft | 258 kts | 266° |
| 2026-04-26 13:41 | 53.32049 | -2.46303 | 6422 ft | 262 kts | 252° |
| 2026-04-26 13:41 | 53.31524 | -2.49244 | 7424 ft | 266 kts | 251° |
| 2026-04-26 13:41 | 53.30977 | -2.52225 | 8448 ft | 270 kts | 252° |
| 2026-04-26 13:41 | 53.30418 | -2.55247 | 9457 ft | 274 kts | 251° |
| 2026-04-26 13:42 | 53.29850 | -2.58306 | 10444 ft | 278 kts | 252° |
| 2026-04-26 13:42 | 53.29262 | -2.61479 | 10890 ft | 302 kts | 252° |
| 2026-04-26 13:42 | 53.28630 | -2.64898 | 11558 ft | 313 kts | 252° |
| 2026-04-26 13:42 | 53.27983 | -2.68397 | 12394 ft | 318 kts | 252° |
| 2026-04-26 13:43 | 53.27327 | -2.71950 | 13272 ft | 322 kts | 252° |
| 2026-04-26 13:43 | 53.26669 | -2.75556 | 14145 ft | 326 kts | 254° |
| 2026-04-26 13:43 | 53.26350 | -2.79334 | 14876 ft | 332 kts | 269° |
| 2026-04-26 13:43 | 53.26619 | -2.83189 | 15619 ft | 338 kts | 282° |
| 2026-04-26 13:44 | 53.27462 | -2.86833 | 16340 ft | 345 kts | 297° |
| 2026-04-26 13:44 | 53.28828 | -2.90178 | 17068 ft | 352 kts | 305° |
| 2026-04-26 13:44 | 53.30305 | -2.93472 | 17783 ft | 357 kts | 305° |
| 2026-04-26 13:44 | 53.31799 | -2.96809 | 18198 ft | 361 kts | 304° |
| 2026-04-26 13:45 | 53.33298 | -3.00164 | 18290 ft | 354 kts | 304° |
| 2026-04-26 13:45 | 53.34735 | -3.03383 | 18302 ft | 339 kts | 304° |
| 2026-04-26 13:45 | 53.36132 | -3.06520 | 18304 ft | 334 kts | 304° |
| 2026-04-26 13:45 | 53.37519 | -3.09639 | 18298 ft | 333 kts | 304° |
| 2026-04-26 13:46 | 53.38905 | -3.12749 | 18300 ft | 333 kts | 305° |
| 2026-04-26 13:46 | 53.40458 | -3.15582 | 18302 ft | 335 kts | 312° |
| 2026-04-26 13:46 | 53.42097 | -3.18364 | 18301 ft | 335 kts | 312° |
| 2026-04-26 13:46 | 53.43734 | -3.21148 | 18294 ft | 335 kts | 312° |
| 2026-04-26 13:47 | 53.45368 | -3.23933 | 18292 ft | 335 kts | 312° |
| 2026-04-26 13:47 | 53.47000 | -3.26719 | 18289 ft | 335 kts | 312° |
| 2026-04-26 13:47 | 53.48633 | -3.29511 | 18291 ft | 335 kts | 312° |
| 2026-04-26 13:47 | 53.50263 | -3.32302 | 18288 ft | 335 kts | 312° |
| 2026-04-26 13:48 | 53.51898 | -3.35100 | 18293 ft | 335 kts | 312° |
| 2026-04-26 13:48 | 53.53529 | -3.37898 | 18292 ft | 335 kts | 312° |
| 2026-04-26 13:48 | 53.55159 | -3.40703 | 18293 ft | 335 kts | 312° |
| 2026-04-26 13:48 | 53.56786 | -3.43502 | 18287 ft | 335 kts | 312° |
| 2026-04-26 13:49 | 53.58302 | -3.46392 | 18296 ft | 333 kts | 303° |
| 2026-04-26 13:49 | 53.59638 | -3.49567 | 18232 ft | 331 kts | 303° |
| 2026-04-26 13:49 | 53.60957 | -3.52707 | 17968 ft | 325 kts | 303° |
| 2026-04-26 13:49 | 53.62254 | -3.55788 | 17633 ft | 321 kts | 303° |
| 2026-04-26 13:50 | 53.63540 | -3.58847 | 17260 ft | 319 kts | 303° |
| 2026-04-26 13:50 | 53.64818 | -3.61885 | 16886 ft | 317 kts | 303° |
| 2026-04-26 13:50 | 53.66088 | -3.64911 | 16523 ft | 315 kts | 303° |
| 2026-04-26 13:50 | 53.67349 | -3.67922 | 16159 ft | 314 kts | 303° |
| 2026-04-26 13:51 | 53.68587 | -3.70878 | 15801 ft | 312 kts | 303° |
| 2026-04-26 13:51 | 53.69836 | -3.73867 | 15441 ft | 311 kts | 303° |
| 2026-04-26 13:51 | 53.71078 | -3.76844 | 15083 ft | 309 kts | 303° |
| 2026-04-26 13:51 | 53.72314 | -3.79808 | 14729 ft | 308 kts | 303° |
| 2026-04-26 13:52 | 53.73545 | -3.82766 | 14385 ft | 307 kts | 303° |
| 2026-04-26 13:52 | 53.74769 | -3.85713 | 14024 ft | 306 kts | 303° |
| 2026-04-26 13:52 | 53.75985 | -3.88647 | 13647 ft | 304 kts | 303° |
| 2026-04-26 13:52 | 53.77177 | -3.91526 | 13290 ft | 301 kts | 302° |
| 2026-04-26 13:53 | 53.78392 | -3.94456 | 12941 ft | 299 kts | 302° |
| 2026-04-26 13:53 | 53.79564 | -3.97282 | 12593 ft | 297 kts | 302° |
| 2026-04-26 13:53 | 53.80742 | -4.00132 | 12240 ft | 295 kts | 302° |
| 2026-04-26 13:53 | 53.81914 | -4.02971 | 11882 ft | 293 kts | 302° |
| 2026-04-26 13:54 | 53.83071 | -4.05784 | 11532 ft | 291 kts | 301° |
| 2026-04-26 13:54 | 53.84227 | -4.08594 | 11177 ft | 290 kts | 301° |
| 2026-04-26 13:54 | 53.85373 | -4.11385 | 10827 ft | 288 kts | 301° |
| 2026-04-26 13:55 | 53.87652 | -4.16944 | 10083 ft | 286 kts | 301° |
| 2026-04-26 13:55 | 53.88403 | -4.18777 | 9835 ft | 285 kts | 301° |
| 2026-04-26 13:55 | 53.91004 | -4.25128 | 8968 ft | 280 kts | 301° |
| 2026-04-26 13:56 | 53.92108 | -4.27829 | 8593 ft | 277 kts | 301° |
| 2026-04-26 13:56 | 53.93203 | -4.30516 | 8215 ft | 275 kts | 301° |
| 2026-04-26 13:56 | 53.94196 | -4.33262 | 7843 ft | 273 kts | 294° |
| 2026-04-26 13:56 | 53.94860 | -4.36257 | 7466 ft | 270 kts | 282° |
| 2026-04-26 13:57 | 53.95294 | -4.39346 | 7098 ft | 269 kts | 279° |
| 2026-04-26 13:57 | 53.95689 | -4.42368 | 6730 ft | 262 kts | 279° |
| 2026-04-26 13:57 | 53.96072 | -4.45349 | 6346 ft | 254 kts | 279° |
| 2026-04-26 13:57 | 53.96440 | -4.48238 | 5970 ft | 246 kts | 279° |
| 2026-04-26 13:58 | 53.96792 | -4.51038 | 5584 ft | 239 kts | 279° |
| 2026-04-26 13:58 | 53.97134 | -4.53764 | 5190 ft | 233 kts | 279° |
| 2026-04-26 13:58 | 53.97466 | -4.56436 | 4821 ft | 230 kts | 279° |
| 2026-04-26 13:58 | 53.97795 | -4.59094 | 4435 ft | 229 kts | 279° |
| 2026-04-26 13:59 | 53.98120 | -4.61726 | 4062 ft | 227 kts | 279° |
| 2026-04-26 13:59 | 53.98444 | -4.64328 | 3736 ft | 228 kts | 279° |
| 2026-04-26 13:59 | 53.98770 | -4.66945 | 3408 ft | 225 kts | 279° |
| 2026-04-26 14:00 | 53.99845 | -4.73994 | 2809 ft | 197 kts | 315° |
| 2026-04-26 14:00 | 54.00996 | -4.75129 | 2764 ft | 190 kts | 340° |
| 2026-04-26 14:00 | 54.01833 | -4.75526 | 2741 ft | 187 kts | 342° |
| 2026-04-26 14:01 | 54.03504 | -4.76270 | 2558 ft | 185 kts | 351° |
| 2026-04-26 14:01 | 54.04786 | -4.76188 | 2344 ft | 186 kts | 12° |
| 2026-04-26 14:01 | 54.05973 | -4.75340 | 2122 ft | 185 kts | 34° |
| 2026-04-26 14:01 | 54.06892 | -4.73875 | 1766 ft | 188 kts | 55° |
| 2026-04-26 14:02 | 54.07464 | -4.71845 | 1303 ft | 192 kts | 77° |
| 2026-04-26 14:02 | 54.07662 | -4.69640 | 947 ft | 185 kts | 83° |
| 2026-04-26 14:02 | 54.07833 | -4.67505 | 830 ft | 176 kts | 83° |
| 2026-04-26 14:02 | 54.07996 | -4.65417 | 1339 ft | 185 kts | 84° |
| 2026-04-26 14:03 | 54.08178 | -4.63106 | 1908 ft | 209 kts | 85° |
| 2026-04-26 14:03 | 54.08389 | -4.60547 | 1977 ft | 220 kts | 82° |
| 2026-04-26 14:03 | 54.08627 | -4.57984 | 2000 ft | 220 kts | 86° |
| 2026-04-26 14:03 | 54.08356 | -4.55523 | 2084 ft | 216 kts | 123° |
| 2026-04-26 14:04 | 54.07271 | -4.53755 | 2348 ft | 219 kts | 157° |
| 2026-04-26 14:04 | 54.05814 | -4.53029 | 2608 ft | 219 kts | 171° |
| 2026-04-26 14:04 | 54.04305 | -4.52791 | 2858 ft | 218 kts | 191° |
| 2026-04-26 14:04 | 54.02960 | -4.53882 | 2980 ft | 217 kts | 224° |
| 2026-04-26 14:05 | 54.02217 | -4.56091 | 3009 ft | 220 kts | 255° |
| 2026-04-26 14:05 | 54.01971 | -4.58658 | 3013 ft | 221 kts | 262° |
| 2026-04-26 14:05 | 54.01800 | -4.61258 | 3013 ft | 221 kts | 262° |
| 2026-04-26 14:05 | 54.01641 | -4.63868 | 3010 ft | 222 kts | 262° |
| 2026-04-26 14:06 | 54.01490 | -4.66442 | 2988 ft | 221 kts | 262° |
| 2026-04-26 14:06 | 54.01364 | -4.68991 | 2856 ft | 212 kts | 268° |
| 2026-04-26 14:06 | 54.01794 | -4.71308 | 2721 ft | 206 kts | 305° |
| 2026-04-26 14:06 | 54.02932 | -4.72679 | 2595 ft | 202 kts | 341° |
| 2026-04-26 14:07 | 54.04288 | -4.73081 | 2418 ft | 199 kts | 356° |
| 2026-04-26 14:07 | 54.05659 | -4.72692 | 1951 ft | 203 kts | 21° |
| 2026-04-26 14:07 | 54.06832 | -4.71383 | 1482 ft | 202 kts | 46° |
| 2026-04-26 14:07 | 54.07563 | -4.69429 | 1097 ft | 194 kts | 75° |
| 2026-04-26 14:08 | 54.07750 | -4.67235 | 823 ft | 186 kts | 86° |
| 2026-04-26 14:08 | 54.07482 | -4.65270 | 1262 ft | 169 kts | 127° |
| 2026-04-26 14:08 | 54.06561 | -4.64018 | 1768 ft | 172 kts | 154° |
| 2026-04-26 14:08 | 54.05459 | -4.63241 | 1961 ft | 171 kts | 162° |
| 2026-04-26 14:09 | 54.04347 | -4.62549 | 2013 ft | 170 kts | 164° |
| 2026-04-26 14:09 | 54.03185 | -4.62472 | 2011 ft | 175 kts | 196° |
| 2026-04-26 14:09 | 54.02163 | -4.63640 | 2008 ft | 184 kts | 233° |
| 2026-04-26 14:09 | 54.01705 | -4.65686 | 2018 ft | 187 kts | 253° |
| 2026-04-26 14:10 | 54.01329 | -4.67802 | 2011 ft | 187 kts | 250° |
| 2026-04-26 14:10 | 54.00928 | -4.69874 | 2013 ft | 187 kts | 250° |
| 2026-04-26 14:10 | 54.00515 | -4.71966 | 2014 ft | 187 kts | 250° |
| 2026-04-26 14:10 | 54.00103 | -4.74060 | 2011 ft | 187 kts | 250° |
| 2026-04-26 14:11 | 53.99295 | -4.78193 | 2006 ft | 175 kts | 250° |
| 2026-04-26 14:11 | 53.98919 | -4.80127 | 2012 ft | 170 kts | 250° |
| 2026-04-26 14:11 | 53.98659 | -4.82077 | 2009 ft | 169 kts | 260° |
| 2026-04-26 14:12 | 53.98525 | -4.84057 | 2005 ft | 169 kts | 262° |
| 2026-04-26 14:12 | 53.98557 | -4.86039 | 1990 ft | 172 kts | 287° |
| 2026-04-26 14:12 | 53.99318 | -4.87517 | 1996 ft | 172 kts | 331° |
| 2026-04-26 14:12 | 54.00475 | -4.88018 | 2019 ft | 171 kts | 350° |
| 2026-04-26 14:13 | 54.02826 | -4.88481 | 2010 ft | 170 kts | 352° |
| 2026-04-26 14:13 | 54.04002 | -4.88498 | 2004 ft | 171 kts | 8° |
| 2026-04-26 14:13 | 54.05107 | -4.87780 | 2009 ft | 171 kts | 32° |
| 2026-04-26 14:14 | 54.05968 | -4.86395 | 2008 ft | 171 kts | 56° |
| 2026-04-26 14:14 | 54.06447 | -4.84565 | 2007 ft | 170 kts | 79° |
| 2026-04-26 14:14 | 54.06618 | -4.82612 | 2003 ft | 161 kts | 84° |
| 2026-04-26 14:14 | 54.06768 | -4.80862 | 2011 ft | 145 kts | 85° |
| 2026-04-26 14:15 | 54.06905 | -4.79197 | 2008 ft | 140 kts | 85° |
| 2026-04-26 14:15 | 54.07038 | -4.77556 | 1961 ft | 140 kts | 85° |
| 2026-04-26 14:15 | 54.07169 | -4.75920 | 1780 ft | 137 kts | 85° |
| 2026-04-26 14:15 | 54.07292 | -4.74315 | 1615 ft | 135 kts | 86° |
| 2026-04-26 14:16 | 54.07321 | -4.72724 | 1454 ft | 135 kts | 93° |
| 2026-04-26 14:16 | 54.07360 | -4.71149 | 1179 ft | 131 kts | 89° |
| 2026-04-26 14:16 | 54.07446 | -4.69619 | 957 ft | 128 kts | 84° |
| 2026-04-26 14:16 | 54.07616 | -4.68156 | 681 ft | 126 kts | 80° |
| 2026-04-26 14:17 | 54.07780 | -4.66715 | 512 ft | 123 kts | 82° |
| 2026-04-26 14:17 | 54.07963 | -4.65291 | 316 ft | 123 kts | 78° |
| 2026-04-26 14:17 | 54.08143 | -4.63880 | 114 ft | 121 kts | 79° |
| 2026-04-26 14:17 | 54.08308 | -4.62519 | 40 ft | 105 kts | 78° |
| 2026-04-26 14:18 | 54.08418 | -4.61666 | 39 ft | 41 kts | 78° |
| 2026-04-26 14:18 | 54.08464 | -4.61422 | 37 ft | 10 kts | 9° |
| 2026-04-26 14:18 | 54.08521 | -4.61458 | 39 ft | 9 kts | 302° |
| 2026-04-26 14:18 | 54.08536 | -4.61562 | 37 ft | 10 kts | 275° |
| 2026-04-26 14:19 | 54.08543 | -4.61681 | 39 ft | 10 kts | 276° |
| 2026-04-26 14:19 | 54.08551 | -4.61807 | 38 ft | 11 kts | 271° |
| 2026-04-26 14:19 | 54.08545 | -4.61941 | 39 ft | 12 kts | 256° |
| 2026-04-26 14:19 | 54.08528 | -4.62081 | 39 ft | 12 kts | 257° |
| 2026-04-26 14:20 | 54.08509 | -4.62228 | 39 ft | 13 kts | 258° |
| 2026-04-26 14:20 | 54.08491 | -4.62385 | 38 ft | 14 kts | 259° |
| 2026-04-26 14:20 | 54.08464 | -4.62551 | 36 ft | 15 kts | 256° |
| 2026-04-26 14:20 | 54.08446 | -4.62732 | 40 ft | 16 kts | 261° |
| 2026-04-26 14:21 | 54.08429 | -4.62923 | 39 ft | 13 kts | 253° |
| 2026-04-26 14:21 | 54.08403 | -4.63058 | 38 ft | 12 kts | 259° |
| 2026-04-26 14:21 | 54.08409 | -4.63207 | 36 ft | 13 kts | 290° |
| 2026-04-26 14:21 | 54.08456 | -4.63345 | 39 ft | 12 kts | 314° |
| 2026-04-26 14:22 | 54.08520 | -4.63333 | 38 ft | 10 kts | 349° |
| 2026-04-26 14:22 | 54.08570 | -4.63412 | 38 ft | 10 kts | 314° |
| 2026-04-26 14:22 | 54.08580 | -4.63460 | 38 ft | 2 kts | 248° |
| 2026-04-26 14:22 | 54.08570 | -4.63484 | 38 ft | 2 kts | 229° |
| 2026-04-26 14:23 | 54.08565 | -4.63493 | 38 ft | 0 kts | 225° |
| 2026-04-26 14:23 | 54.08558 | -4.63504 | 38 ft | 0 kts | 225° |